createdAt,value
2018-06-22T00:00:20.551Z,16.00
2018-06-22T00:02:50.637Z,16.00
2018-06-22T00:05:20.584Z,15.90
2018-06-22T00:07:50.499Z,15.80
2018-06-22T00:10:20.518Z,15.60
2018-06-22T00:12:50.444Z,15.50
2018-06-22T00:15:20.427Z,15.40
2018-06-22T00:17:50.493Z,15.30
2018-06-22T00:20:20.321Z,15.20
2018-06-22T00:22:50.259Z,15.10
2018-06-22T00:25:20.091Z,15.10
2018-06-22T00:27:49.939Z,14.90
2018-06-22T00:30:19.633Z,14.90
2018-06-22T00:32:49.117Z,14.90
2018-06-22T00:35:19.115Z,14.80
2018-06-22T00:37:48.436Z,14.80
2018-06-22T00:40:18.966Z,14.70
2018-06-22T00:42:48.343Z,14.70
2018-06-22T00:45:17.488Z,14.60
2018-06-22T00:47:47.476Z,14.60
2018-06-22T00:50:17.803Z,14.60
2018-06-22T00:52:46.714Z,14.50
2018-06-22T00:55:16.787Z,14.50
2018-06-22T00:57:46.338Z,14.40
2018-06-22T01:00:15.282Z,14.40
2018-06-22T01:02:44.556Z,14.30
2018-06-22T01:05:14.061Z,14.20
2018-06-22T01:07:43.434Z,14.10
2018-06-22T01:10:12.965Z,14.10
2018-06-22T01:12:42.352Z,14.00
2018-06-22T01:15:12.279Z,13.90
2018-06-22T01:17:41.306Z,13.80
2018-06-22T01:20:10.350Z,13.80
2018-06-22T01:22:40.545Z,13.70
2018-06-22T01:25:09.976Z,13.60
2018-06-22T01:27:40.844Z,13.60
2018-06-22T01:30:09.815Z,13.50
2018-06-22T01:32:39.320Z,13.40
2018-06-22T01:35:08.925Z,13.40
2018-06-22T01:37:38.020Z,13.30
2018-06-22T01:40:07.401Z,13.20
2018-06-22T01:42:36.636Z,13.20
2018-06-22T01:45:06.332Z,13.20
2018-06-22T01:47:35.375Z,13.10
2018-06-22T01:50:05.148Z,13.00
2018-06-22T01:52:34.589Z,12.90
2018-06-22T01:55:03.752Z,12.90
2018-06-22T01:57:32.972Z,12.80
2018-06-22T02:00:02.186Z,12.80
2018-06-22T02:02:31.761Z,12.70
2018-06-22T02:05:01.392Z,12.70
2018-06-22T02:07:30.885Z,12.60
2018-06-22T02:12:28.433Z,12.50
2018-06-22T02:14:58.109Z,12.50
2018-06-22T02:17:28.439Z,12.50
2018-06-22T02:19:57.560Z,12.40
2018-06-22T02:22:27.308Z,12.40
2018-06-22T02:24:57.188Z,12.40
2018-06-22T02:27:26.250Z,12.30
2018-06-22T02:29:55.444Z,12.20
2018-06-22T02:32:24.477Z,12.20
2018-06-22T02:34:54.333Z,12.10
2018-06-22T02:37:23.501Z,12.10
2018-06-22T02:39:53.395Z,12.00
2018-06-22T02:42:22.486Z,12.00
2018-06-22T02:44:51.558Z,11.90
2018-06-22T02:47:20.580Z,11.90
2018-06-22T02:49:49.668Z,11.90
2018-06-22T02:52:19.113Z,11.80
2018-06-22T02:54:48.990Z,11.80
2018-06-22T02:57:18.521Z,11.70
2018-06-22T02:59:48.640Z,11.70
2018-06-22T03:02:18.397Z,11.60
2018-06-22T03:04:48.621Z,11.60
2018-06-22T03:07:18.277Z,11.60
2018-06-22T03:09:48.274Z,11.60
2018-06-22T03:12:17.371Z,11.50
2018-06-22T03:14:46.466Z,11.50
2018-06-22T03:17:15.430Z,11.50
2018-06-22T03:19:45.165Z,11.40
2018-06-22T03:22:14.674Z,11.30
2018-06-22T03:24:44.372Z,11.30
2018-06-22T03:27:14.018Z,11.30
2018-06-22T03:29:43.274Z,11.30
2018-06-22T03:32:12.345Z,11.30
2018-06-22T03:34:41.377Z,11.20
2018-06-22T03:37:10.423Z,11.20
2018-06-22T03:39:39.545Z,11.20
2018-06-22T03:42:08.665Z,11.10
2018-06-22T03:44:37.643Z,11.10
2018-06-22T03:47:07.240Z,11.10
2018-06-22T03:49:36.441Z,11.10
2018-06-22T03:52:06.361Z,11.00
2018-06-22T03:54:35.380Z,11.00
2018-06-22T03:57:04.441Z,11.10
2018-06-22T03:59:34.080Z,11.10
2018-06-22T04:02:03.132Z,11.00
2018-06-22T04:04:32.247Z,11.00
2018-06-22T04:07:01.328Z,11.00
2018-06-22T04:09:30.771Z,11.00
2018-06-22T04:11:59.919Z,11.10
2018-06-22T04:14:29.031Z,11.10
2018-06-22T04:16:58.159Z,11.10
2018-06-22T04:19:28.034Z,11.10
2018-06-22T04:21:57.144Z,11.10
2018-06-22T04:24:26.632Z,11.20
2018-06-22T04:26:55.650Z,11.20
2018-06-22T04:29:26.303Z,11.20
2018-06-22T04:31:56.153Z,11.20
2018-06-22T04:34:25.148Z,11.20
2018-06-22T04:36:54.284Z,11.20
2018-06-22T04:39:23.399Z,11.30
2018-06-22T04:41:53.292Z,11.30
2018-06-22T04:44:22.640Z,11.30
2018-06-22T04:46:51.788Z,11.40
2018-06-22T04:49:20.784Z,11.40
2018-06-22T04:51:49.840Z,11.40
2018-06-22T04:54:19.277Z,11.40
2018-06-22T04:56:48.601Z,11.50
2018-06-22T04:59:18.320Z,11.50
2018-06-22T05:04:16.058Z,11.60
2018-06-22T05:06:45.300Z,11.60
2018-06-22T05:09:15.007Z,11.60
2018-06-22T05:11:46.363Z,11.60
2018-06-22T05:14:16.128Z,11.70
2018-06-22T05:16:45.921Z,11.70
2018-06-22T05:19:15.043Z,11.80
2018-06-22T05:21:44.924Z,11.80
2018-06-22T05:24:14.097Z,11.90
2018-06-22T05:26:43.116Z,12.00
2018-06-22T05:29:12.296Z,12.00
2018-06-22T05:31:41.959Z,12.20
2018-06-22T05:34:11.066Z,12.20
2018-06-22T05:36:40.133Z,12.20
2018-06-22T05:39:11.021Z,12.20
2018-06-22T05:41:40.322Z,12.20
2018-06-22T05:44:10.219Z,12.30
2018-06-22T05:46:39.396Z,12.40
2018-06-22T05:49:08.527Z,12.50
2018-06-22T05:51:37.686Z,12.50
2018-06-22T05:54:06.684Z,12.60
2018-06-22T05:56:36.022Z,12.60
2018-06-22T05:59:05.138Z,12.70
2018-06-22T06:01:34.255Z,12.70
2018-06-22T06:04:03.377Z,12.70
2018-06-22T06:06:32.429Z,12.70
2018-06-22T06:09:02.048Z,12.70
2018-06-22T06:11:31.125Z,12.70
2018-06-22T06:14:00.502Z,12.80
2018-06-22T06:16:29.653Z,12.80
2018-06-22T06:18:58.717Z,12.90
2018-06-22T06:21:27.865Z,12.90
2018-06-22T06:23:57.624Z,12.90
2018-06-22T06:26:26.854Z,12.90
2018-06-22T06:28:55.918Z,13.00
2018-06-22T06:31:25.157Z,12.90
2018-06-22T06:33:54.336Z,13.00
2018-06-22T06:36:23.922Z,13.10
2018-06-22T06:38:53.480Z,13.20
2018-06-22T06:41:22.444Z,13.20
2018-06-22T06:43:51.562Z,13.30
2018-06-22T06:46:20.741Z,13.30
2018-06-22T06:48:50.208Z,13.40
2018-06-22T06:51:20.144Z,13.40
2018-06-22T06:53:49.669Z,13.40
2018-06-22T06:56:18.767Z,13.50
2018-06-22T06:58:48.559Z,13.50
2018-06-22T07:01:17.669Z,13.50
2018-06-22T07:03:47.032Z,13.60
2018-06-22T07:06:16.181Z,13.60
2018-06-22T07:08:45.236Z,13.70
2018-06-22T07:11:14.878Z,13.70
2018-06-22T07:13:43.959Z,13.70
2018-06-22T07:16:13.653Z,13.70
2018-06-22T07:18:42.770Z,13.80
2018-06-22T07:21:12.513Z,13.90
2018-06-22T07:26:11.082Z,14.00
2018-06-22T07:28:41.073Z,14.00
2018-06-22T07:31:10.183Z,14.10
2018-06-22T07:33:40.574Z,14.30
2018-06-22T07:36:09.716Z,14.40
2018-06-22T07:38:38.802Z,14.50
2018-06-22T07:41:07.917Z,14.60
2018-06-22T07:43:36.994Z,14.70
2018-06-22T07:46:06.112Z,14.90
2018-06-22T07:48:35.277Z,15.00
2018-06-22T07:51:04.933Z,15.20
2018-06-22T07:53:34.495Z,15.10
2018-06-22T07:56:04.219Z,15.10
2018-06-22T07:58:33.419Z,15.20
2018-06-22T08:01:02.905Z,15.40
2018-06-22T08:03:32.013Z,15.50
2018-06-22T08:06:01.897Z,15.60
2018-06-22T08:08:31.013Z,15.70
2018-06-22T08:11:00.206Z,15.70
2018-06-22T08:13:29.231Z,15.60
2018-06-22T08:18:26.860Z,15.80
2018-06-22T08:20:55.996Z,15.80
2018-06-22T08:23:25.582Z,16.00
2018-06-22T08:25:54.777Z,16.20
2018-06-22T08:28:23.983Z,16.50
2018-06-22T08:30:53.113Z,16.60
2018-06-22T08:33:22.612Z,16.50
2018-06-22T08:35:51.939Z,16.50
2018-06-22T08:38:21.060Z,16.50
2018-06-22T08:40:50.589Z,16.50
2018-06-22T08:43:20.281Z,16.90
2018-06-22T08:45:49.594Z,16.90
2018-06-22T08:48:18.681Z,16.80
2018-06-22T08:50:47.763Z,16.70
2018-06-22T08:53:17.297Z,16.70
2018-06-22T08:55:46.324Z,16.80
2018-06-22T08:58:15.540Z,16.90
2018-06-22T09:00:44.902Z,16.90
2018-06-22T09:03:13.964Z,16.70
2018-06-22T09:05:43.202Z,16.70
2018-06-22T09:08:12.419Z,16.70
2018-06-22T09:10:41.481Z,16.80
2018-06-22T09:13:10.855Z,16.60
2018-06-22T09:15:40.495Z,16.60
2018-06-22T09:18:10.216Z,16.50
2018-06-22T09:20:39.291Z,16.50
2018-06-22T09:23:08.376Z,16.80
2018-06-22T09:25:37.332Z,17.00
2018-06-22T09:28:07.073Z,17.20
2018-06-22T09:30:36.015Z,17.20
2018-06-22T09:33:05.300Z,17.40
2018-06-22T09:35:34.440Z,17.30
2018-06-22T09:38:03.759Z,17.10
2018-06-22T09:40:33.593Z,17.20
2018-06-22T09:43:02.545Z,17.20
2018-06-22T09:45:31.670Z,17.40
2018-06-22T09:48:01.985Z,17.60
2018-06-22T09:50:31.093Z,17.40
2018-06-22T09:53:00.158Z,17.30
2018-06-22T09:55:29.198Z,17.30
2018-06-22T09:57:58.364Z,17.30
2018-06-22T10:00:27.452Z,17.40
2018-06-22T10:02:56.829Z,17.50
2018-06-22T10:05:25.967Z,17.70
2018-06-22T10:07:54.926Z,17.60
2018-06-22T10:10:24.046Z,17.80
2018-06-22T10:12:53.121Z,17.90
2018-06-22T10:15:22.751Z,18.10
2018-06-22T10:17:51.855Z,17.80
2018-06-22T10:20:21.497Z,17.70
2018-06-22T10:22:52.741Z,17.90
2018-06-22T10:25:24.204Z,17.80
2018-06-22T10:27:54.682Z,18.00
2018-06-22T10:30:24.713Z,18.10
2018-06-22T10:32:53.632Z,18.20
2018-06-22T10:35:23.930Z,18.20
2018-06-22T10:37:53.726Z,18.20
2018-06-22T10:40:23.412Z,18.10
2018-06-22T10:42:52.531Z,17.80
2018-06-22T10:45:21.512Z,17.80
2018-06-22T10:47:50.782Z,17.70
2018-06-22T10:50:19.897Z,17.80
2018-06-22T10:52:49.437Z,18.10
2018-06-22T10:55:18.604Z,18.20
2018-06-22T10:57:47.902Z,18.40
2018-06-22T11:00:17.248Z,18.50
2018-06-22T11:02:46.401Z,18.60
2018-06-22T11:05:15.500Z,18.80
2018-06-22T11:07:44.676Z,18.90
2018-06-22T11:10:13.714Z,18.90
2018-06-22T11:12:42.665Z,18.70
2018-06-22T11:15:12.371Z,18.40
2018-06-22T11:17:41.487Z,18.30
2018-06-22T11:20:11.610Z,18.10
2018-06-22T11:22:41.244Z,17.90
2018-06-22T11:25:10.304Z,17.90
2018-06-22T11:27:39.718Z,18.00
2018-06-22T11:30:09.301Z,17.80
2018-06-22T11:32:38.518Z,17.90
2018-06-22T11:35:08.213Z,17.90
2018-06-22T11:37:37.387Z,18.00
2018-06-22T11:40:06.520Z,18.00
2018-06-22T11:42:35.498Z,18.20
2018-06-22T11:45:05.036Z,18.00
2018-06-22T11:47:34.080Z,18.10
2018-06-22T11:50:03.209Z,18.30
2018-06-22T11:52:32.221Z,18.20
2018-06-22T11:55:01.184Z,18.10
2018-06-22T11:57:30.192Z,18.20
2018-06-22T11:59:59.663Z,18.00
2018-06-22T12:02:28.896Z,17.60
2018-06-22T12:04:58.094Z,17.50
2018-06-22T12:07:27.393Z,17.50
2018-06-22T12:09:56.481Z,17.80
2018-06-22T12:12:25.573Z,17.80
2018-06-22T12:14:54.620Z,18.00
2018-06-22T12:17:24.436Z,18.10
2018-06-22T12:19:53.594Z,18.20
2018-06-22T12:22:22.687Z,18.20
2018-06-22T12:24:51.990Z,18.10
2018-06-22T12:27:21.100Z,17.80
2018-06-22T12:29:50.590Z,17.80
2018-06-22T12:32:20.303Z,17.70
2018-06-22T12:34:49.361Z,17.70
2018-06-22T12:37:18.511Z,17.80
2018-06-22T12:39:47.534Z,17.70
2018-06-22T12:42:16.628Z,17.60
2018-06-22T12:44:46.141Z,17.80
2018-06-22T12:47:15.749Z,17.80
2018-06-22T12:49:45.530Z,17.70
2018-06-22T12:52:14.702Z,17.60
2018-06-22T12:54:44.240Z,17.40
2018-06-22T12:57:13.938Z,17.20
2018-06-22T12:59:43.057Z,17.10
2018-06-22T13:02:13.128Z,17.00
2018-06-22T13:04:42.201Z,16.90
2018-06-22T13:07:11.448Z,16.90
2018-06-22T13:09:40.791Z,16.90
2018-06-22T13:12:11.149Z,16.90
2018-06-22T13:14:40.464Z,16.90
2018-06-22T13:17:09.595Z,16.90
2018-06-22T13:19:39.308Z,17.00
2018-06-22T13:22:08.480Z,17.30
2018-06-22T13:24:38.127Z,17.60
2018-06-22T13:27:07.141Z,17.60
2018-06-22T13:29:36.237Z,17.60
2018-06-22T13:32:05.312Z,17.50
2018-06-22T13:34:35.014Z,17.60
2018-06-22T13:37:04.260Z,17.80
2018-06-22T13:39:33.767Z,18.00
2018-06-22T13:42:03.943Z,18.00
2018-06-22T13:44:33.996Z,18.20
2018-06-22T13:49:33.398Z,18.40
2018-06-22T13:52:02.698Z,18.40
2018-06-22T13:54:32.186Z,18.20
2018-06-22T13:57:01.807Z,18.20
2018-06-22T13:59:31.138Z,18.20
2018-06-22T14:02:00.316Z,18.20
2018-06-22T14:04:34.617Z,18.40
2018-06-22T14:07:05.459Z,18.60
2018-06-22T14:12:04.288Z,18.70
2018-06-22T14:14:33.369Z,18.70
2018-06-22T14:17:02.741Z,18.70
2018-06-22T14:19:31.906Z,18.70
2018-06-22T14:22:01.025Z,18.70
2018-06-22T14:24:30.061Z,18.60
2018-06-22T14:29:28.436Z,18.50
2018-06-22T14:31:58.360Z,18.40
2018-06-22T14:34:27.665Z,18.50
2018-06-22T14:36:56.981Z,18.30
2018-06-22T14:39:26.568Z,18.40
2018-06-22T14:41:56.030Z,18.20
2018-06-22T14:44:25.063Z,18.10
2018-06-22T14:46:54.296Z,18.10
2018-06-22T14:49:23.431Z,17.90
2018-06-22T14:51:57.790Z,17.70
2018-06-22T14:54:32.273Z,17.70
2018-06-22T14:57:06.402Z,17.70
2018-06-22T14:59:40.826Z,17.80
2018-06-22T15:02:15.805Z,17.80
2018-06-22T15:04:50.230Z,17.80
2018-06-22T15:07:24.703Z,17.70
2018-06-22T15:12:23.058Z,17.60
2018-06-22T15:14:52.168Z,17.50
2018-06-22T15:17:21.325Z,17.30
2018-06-22T15:19:51.354Z,17.40
2018-06-22T15:22:20.476Z,17.20
2018-06-22T15:24:49.806Z,17.00
2018-06-22T15:27:18.880Z,16.90
2018-06-22T15:29:48.670Z,16.90
2018-06-22T15:32:18.102Z,16.80
2018-06-22T15:34:52.585Z,16.80
2018-06-22T15:37:26.900Z,16.70
2018-06-22T15:40:01.175Z,16.60
2018-06-22T15:42:36.192Z,16.50
2018-06-22T15:45:10.813Z,16.40
2018-06-22T15:47:44.875Z,16.50
2018-06-22T15:50:19.130Z,16.50
2018-06-22T15:52:53.453Z,16.40
2018-06-22T15:55:24.182Z,16.40
2018-06-22T15:57:53.844Z,16.50
2018-06-22T16:00:22.912Z,16.40
2018-06-22T16:02:57.997Z,16.30
2018-06-22T16:05:27.148Z,16.30
2018-06-22T16:07:56.235Z,16.30
2018-06-22T16:10:25.394Z,16.30
2018-06-22T16:12:54.552Z,16.30
2018-06-22T16:15:28.840Z,16.20
2018-06-22T16:18:03.353Z,16.30
2018-06-22T16:20:38.123Z,16.30
2018-06-22T16:23:13.455Z,16.40
2018-06-22T16:25:48.278Z,16.30
2018-06-22T16:28:17.353Z,16.30
2018-06-22T16:30:46.907Z,16.20
2018-06-22T16:33:16.188Z,16.30
2018-06-22T16:35:45.401Z,16.30
2018-06-22T16:38:15.650Z,16.30
2018-06-22T16:40:45.238Z,16.30
2018-06-22T16:43:15.133Z,16.30
2018-06-22T16:45:44.933Z,16.10
2018-06-22T16:48:14.141Z,16.10
2018-06-22T16:50:43.614Z,16.10
2018-06-22T16:53:14.138Z,16.00
2018-06-22T16:55:46.526Z,16.00
2018-06-22T16:58:23.308Z,16.00
2018-06-22T17:00:54.607Z,16.10
2018-06-22T17:03:25.167Z,16.10
2018-06-22T17:05:56.309Z,16.10
2018-06-22T17:08:31.711Z,16.10
2018-06-22T17:11:06.935Z,16.00
2018-06-22T17:13:43.540Z,16.00
2018-06-22T17:16:18.124Z,15.90
2018-06-22T17:18:50.289Z,15.80
2018-06-22T17:21:21.728Z,15.80
2018-06-22T17:23:51.845Z,15.80
2018-06-22T17:26:21.666Z,15.80
2018-06-22T17:28:51.483Z,15.80
2018-06-22T17:31:21.229Z,15.90
2018-06-22T17:33:50.781Z,15.90
2018-06-22T17:36:20.376Z,15.90
2018-06-22T17:38:49.942Z,15.90
2018-06-22T17:41:19.861Z,15.90
2018-06-22T17:43:49.741Z,15.80
2018-06-22T17:46:19.495Z,15.80
2018-06-22T17:48:49.273Z,15.80
2018-06-22T17:51:18.947Z,15.70
2018-06-22T17:53:48.868Z,15.70
2018-06-22T17:56:23.929Z,15.70
2018-06-22T17:58:59.242Z,15.60
2018-06-22T18:01:34.174Z,15.60
2018-06-22T18:04:08.647Z,15.60
2018-06-22T18:06:43.652Z,15.50
2018-06-22T18:09:18.184Z,15.50
2018-06-22T18:11:53.318Z,15.50
2018-06-22T18:14:23.579Z,15.50
2018-06-22T18:16:53.270Z,15.50
2018-06-22T18:19:24.030Z,15.40
2018-06-22T18:21:53.257Z,15.40
2018-06-22T18:24:22.552Z,15.30
2018-06-22T18:26:52.875Z,15.30
2018-06-22T18:29:22.409Z,15.20
2018-06-22T18:31:51.998Z,15.20
2018-06-22T18:34:22.148Z,15.10
2018-06-22T18:36:52.251Z,15.10
2018-06-22T18:39:21.665Z,15.00
2018-06-22T18:41:51.573Z,15.00
2018-06-22T18:44:21.632Z,14.90
2018-06-22T18:46:51.433Z,14.90
2018-06-22T18:49:20.796Z,14.80
2018-06-22T18:51:54.594Z,14.80
2018-06-22T18:54:28.961Z,14.70
2018-06-22T18:58:06.240Z,14.70
2018-06-22T19:00:41.079Z,14.60
2018-06-22T19:03:16.625Z,14.50
2018-06-22T19:05:45.905Z,14.50
2018-06-22T19:08:15.031Z,14.40
2018-06-22T19:10:44.292Z,14.40
2018-06-22T19:13:13.424Z,14.30
2018-06-22T19:15:42.815Z,14.30
2018-06-22T19:18:12.833Z,14.20
2018-06-22T19:20:44.301Z,14.20
2018-06-22T19:23:14.197Z,14.10
2018-06-22T19:25:44.831Z,14.00
2018-06-22T19:28:14.947Z,14.00
2018-06-22T19:30:44.628Z,14.00
2018-06-22T19:33:15.143Z,13.90
2018-06-22T19:35:44.793Z,13.80
2018-06-22T19:38:14.037Z,13.80
2018-06-22T19:40:43.491Z,13.80
2018-06-22T19:43:19.104Z,13.70
2018-06-22T19:45:54.157Z,13.70
2018-06-22T19:48:23.691Z,13.60
2018-06-22T19:53:32.155Z,13.50
2018-06-22T19:56:01.675Z,13.40
2018-06-22T19:58:30.866Z,13.30
2018-06-22T20:01:01.038Z,13.30
2018-06-22T20:03:31.138Z,13.20
2018-06-22T20:06:00.176Z,13.10
2018-06-22T20:08:29.489Z,13.00
2018-06-22T20:10:59.255Z,13.00
2018-06-22T20:13:28.712Z,13.00
2018-06-22T20:15:58.287Z,12.90
2018-06-22T20:18:27.825Z,12.90
2018-06-22T20:20:57.286Z,12.80
2018-06-22T20:23:27.305Z,12.80
2018-06-22T20:25:56.704Z,12.70
2018-06-22T20:28:26.137Z,12.70
2018-06-22T20:30:55.391Z,12.60
2018-06-22T20:33:24.727Z,12.60
2018-06-22T20:38:32.918Z,12.50
2018-06-22T20:41:07.260Z,12.50
2018-06-22T20:43:41.632Z,12.50
2018-06-22T20:46:11.241Z,12.50
2018-06-22T20:48:45.795Z,12.50
2018-06-22T20:51:14.812Z,12.40
2018-06-22T20:53:43.894Z,12.50
2018-06-22T20:56:13.101Z,12.40
2018-06-22T20:58:42.988Z,12.40
2018-06-22T21:01:12.350Z,12.40
2018-06-22T21:03:41.390Z,12.30
2018-06-22T21:06:10.483Z,12.30
2018-06-22T21:08:40.563Z,12.30
2018-06-22T21:11:10.460Z,12.30
2018-06-22T21:13:40.442Z,12.30
2018-06-22T21:16:11.029Z,12.20
2018-06-22T21:18:42.806Z,12.20
2018-06-22T21:21:17.968Z,12.20
2018-06-22T21:23:48.080Z,12.20
2018-06-22T21:26:17.072Z,12.10
2018-06-22T21:28:52.506Z,12.10
2018-06-22T21:31:27.516Z,12.00
2018-06-22T21:34:02.199Z,12.00
2018-06-22T21:36:37.013Z,12.00
2018-06-22T21:39:09.418Z,12.00
2018-06-22T21:41:38.805Z,12.00
2018-06-22T21:49:06.537Z,11.80
2018-06-22T21:51:35.784Z,11.80
2018-06-22T21:54:05.667Z,11.80
2018-06-22T21:56:35.108Z,11.80
2018-06-22T21:59:04.892Z,11.80
2018-06-22T22:01:34.604Z,11.80
2018-06-22T22:04:03.735Z,11.70
2018-06-22T22:06:33.633Z,11.70
2018-06-22T22:09:03.772Z,11.60
2018-06-22T22:11:38.760Z,11.60
2018-06-22T22:14:08.809Z,11.50
2018-06-22T22:16:37.880Z,11.40
2018-06-22T22:19:07.090Z,11.30
2018-06-22T22:21:36.157Z,11.30
2018-06-22T22:24:05.481Z,11.20
2018-06-22T22:26:35.177Z,11.20
2018-06-22T22:29:04.385Z,11.20
2018-06-22T22:31:33.281Z,11.10
2018-06-22T22:34:02.571Z,11.10
2018-06-22T22:36:32.002Z,11.10
2018-06-22T22:39:06.380Z,11.00
2018-06-22T22:41:36.906Z,11.00
2018-06-22T22:44:06.008Z,11.00
2018-06-22T22:46:36.231Z,11.00
2018-06-22T22:49:05.470Z,11.00
2018-06-22T22:51:35.431Z,11.00
2018-06-22T22:54:04.888Z,11.00
2018-06-22T22:56:35.393Z,10.90
2018-06-22T22:59:04.512Z,10.90
2018-06-22T23:01:34.364Z,10.90
2018-06-22T23:04:03.428Z,10.90
2018-06-22T23:06:32.801Z,10.80
2018-06-22T23:09:01.870Z,10.80
2018-06-22T23:11:30.908Z,10.80
2018-06-22T23:13:59.894Z,10.80
2018-06-22T23:16:29.020Z,10.80
2018-06-22T23:21:27.037Z,10.70
2018-06-22T23:23:56.646Z,10.70
2018-06-22T23:26:25.876Z,10.70
2018-06-22T23:28:55.860Z,10.70
2018-06-22T23:31:25.926Z,10.60
2018-06-22T23:33:55.424Z,10.60
2018-06-22T23:36:24.405Z,10.60
2018-06-22T23:38:54.322Z,10.60
2018-06-22T23:41:23.413Z,10.50
2018-06-22T23:43:52.542Z,10.50
2018-06-22T23:46:22.124Z,10.40
2018-06-22T23:48:51.493Z,10.40
2018-06-22T23:51:21.231Z,10.40
2018-06-22T23:53:50.330Z,10.30
2018-06-22T23:56:20.263Z,10.30
2018-06-22T23:58:49.412Z,10.30
